createdAt,value
2023-02-20T00:00:32.456Z,8.97
2023-02-20T00:02:59.328Z,8.10
2023-02-20T00:05:26.164Z,9.00
2023-02-20T00:07:53.879Z,8.90
2023-02-20T00:10:20.803Z,7.93
2023-02-20T00:12:47.517Z,8.70
2023-02-20T00:15:15.474Z,8.93
2023-02-20T00:17:43.746Z,8.10
2023-02-20T00:20:10.992Z,8.10
2023-02-20T00:22:37.672Z,8.33
2023-02-20T00:25:04.448Z,7.93
2023-02-20T00:27:31.196Z,8.53
2023-02-20T00:29:57.915Z,7.70
2023-02-20T00:32:24.628Z,7.80
2023-02-20T00:34:51.628Z,7.93
2023-02-20T00:37:18.472Z,7.70
2023-02-20T00:39:45.171Z,8.10
2023-02-20T00:42:11.903Z,7.20
2023-02-20T00:44:39.157Z,7.43
2023-02-20T00:47:06.018Z,7.67
2023-02-20T00:49:32.702Z,7.90
2023-02-20T00:51:59.381Z,7.60
2023-02-20T00:54:26.100Z,6.93
2023-02-20T00:56:52.847Z,7.80
2023-02-20T00:59:19.599Z,7.63
2023-02-20T01:01:46.342Z,8.17
2023-02-20T01:04:13.134Z,8.20
2023-02-20T01:06:39.840Z,7.23
2023-02-20T01:09:06.601Z,9.20
2023-02-20T01:11:33.333Z,7.30
2023-02-20T01:14:00.127Z,8.57
2023-02-20T01:16:26.822Z,8.30
2023-02-20T01:18:53.739Z,8.93
2023-02-20T01:21:20.563Z,8.83
2023-02-20T01:23:47.342Z,8.30
2023-02-20T01:26:14.397Z,10.27
2023-02-20T01:28:49.273Z,10.47
2023-02-20T01:31:16.590Z,11.13
2023-02-20T01:33:44.566Z,11.40
2023-02-20T01:36:11.722Z,10.90
2023-02-20T01:38:40.882Z,12.10
2023-02-20T01:41:10.112Z,11.40
2023-02-20T01:43:36.813Z,11.50
2023-02-20T01:46:25.606Z,12.53
2023-02-20T01:48:54.225Z,11.73
2023-02-20T01:51:20.911Z,11.67
2023-02-20T01:53:47.592Z,10.97
2023-02-20T01:56:14.507Z,11.20
2023-02-20T01:58:48.377Z,11.63
2023-02-20T02:01:15.517Z,11.97
2023-02-20T02:03:46.323Z,10.87
2023-02-20T02:06:15.001Z,11.97
2023-02-20T02:08:44.062Z,10.47
2023-02-20T02:11:16.919Z,11.27
2023-02-20T02:13:44.405Z,11.80
2023-02-20T02:17:10.085Z,11.33
2023-02-20T02:19:53.549Z,11.43
2023-02-20T02:22:38.484Z,11.30
2023-02-20T02:25:38.181Z,11.37
2023-02-20T02:28:28.452Z,10.80
2023-02-20T02:31:28.070Z,11.03
2023-02-20T02:34:21.247Z,12.07
2023-02-20T02:36:51.692Z,11.80
2023-02-20T02:39:31.630Z,10.70
2023-02-20T02:42:42.905Z,11.33
2023-02-20T02:45:17.255Z,10.90
2023-02-20T02:47:50.247Z,9.30
2023-02-20T02:50:34.685Z,11.93
2023-02-20T02:53:02.932Z,10.43
2023-02-20T02:55:33.952Z,10.73
2023-02-20T02:58:01.854Z,9.97
2023-02-20T03:00:54.572Z,10.97
2023-02-20T03:03:24.327Z,10.57
2023-02-20T03:06:09.828Z,9.90
2023-02-20T03:08:58.766Z,8.00
2023-02-20T03:11:28.868Z,9.97
2023-02-20T03:14:29.147Z,10.30
2023-02-20T03:17:20.974Z,9.87
2023-02-20T03:19:51.812Z,10.00
2023-02-20T03:22:20.245Z,9.30
2023-02-20T03:24:56.722Z,10.63
2023-02-20T03:27:41.939Z,8.63
2023-02-20T03:30:12.928Z,8.50
2023-02-20T03:33:00.022Z,8.60
2023-02-20T03:35:46.607Z,8.17
2023-02-20T03:38:32.631Z,8.80
2023-02-20T03:41:19.172Z,8.93
2023-02-20T03:43:47.796Z,7.90
2023-02-20T03:46:20.973Z,9.10
2023-02-20T03:48:58.673Z,8.20
2023-02-20T03:51:25.636Z,7.63
2023-02-20T03:53:53.344Z,8.20
2023-02-20T03:56:34.962Z,8.30
2023-02-20T03:59:40.018Z,7.53
2023-02-20T04:02:14.373Z,7.77
2023-02-20T04:04:46.759Z,7.40
2023-02-20T04:07:20.901Z,7.33
2023-02-20T04:09:48.112Z,7.20
2023-02-20T04:12:26.220Z,6.70
2023-02-20T04:14:55.589Z,7.73
2023-02-20T04:17:30.397Z,6.97
2023-02-20T04:19:57.316Z,6.93
2023-02-20T04:22:34.499Z,7.10
2023-02-20T04:25:07.583Z,6.73
2023-02-20T04:27:34.488Z,6.57
2023-02-20T04:30:01.465Z,7.53
2023-02-20T04:32:28.309Z,7.43
2023-02-20T04:34:55.204Z,7.80
2023-02-20T04:37:22.030Z,7.93
2023-02-20T04:39:51.972Z,8.03
2023-02-20T04:42:18.752Z,7.20
2023-02-20T04:44:45.770Z,7.67
2023-02-20T04:47:15.292Z,7.73
2023-02-20T04:49:42.589Z,8.70
2023-02-20T04:52:09.372Z,8.20
2023-02-20T04:54:36.154Z,8.43
2023-02-20T04:57:02.924Z,7.97
2023-02-20T04:59:29.665Z,7.90
2023-02-20T05:01:56.904Z,8.07
2023-02-20T05:04:23.669Z,9.73
2023-02-20T05:06:53.392Z,9.30
2023-02-20T05:09:21.349Z,10.23
2023-02-20T05:11:48.138Z,10.93
2023-02-20T05:14:15.781Z,9.80
2023-02-20T05:16:45.500Z,8.70
2023-02-20T05:19:13.027Z,10.63
2023-02-20T05:22:01.841Z,9.93
2023-02-20T05:24:29.069Z,10.33
2023-02-20T05:26:56.616Z,11.00
2023-02-20T05:29:23.516Z,10.90
2023-02-20T05:31:50.508Z,11.87
2023-02-20T05:34:17.418Z,11.80
2023-02-20T05:36:44.117Z,10.10
2023-02-20T05:39:10.791Z,10.87
2023-02-20T05:41:37.642Z,30.80
2023-02-20T05:44:05.027Z,11.20
2023-02-20T05:46:31.795Z,15.27
2023-02-20T05:48:58.599Z,11.60
2023-02-20T05:51:28.529Z,12.50
2023-02-20T05:53:56.143Z,10.93
2023-02-20T05:56:23.246Z,10.53
2023-02-20T05:58:50.380Z,9.93
2023-02-20T06:01:25.432Z,11.47
2023-02-20T06:03:52.674Z,11.17
2023-02-20T06:06:19.652Z,11.73
2023-02-20T06:08:46.760Z,11.83
2023-02-20T06:11:14.581Z,12.47
2023-02-20T06:13:43.408Z,11.80
2023-02-20T06:16:10.905Z,11.73
2023-02-20T06:18:42.444Z,13.53
2023-02-20T06:21:10.670Z,12.93
2023-02-20T06:23:38.897Z,13.70
2023-02-20T06:26:07.278Z,13.60
2023-02-20T06:28:34.844Z,13.90
2023-02-20T06:31:02.298Z,14.80
2023-02-20T06:33:29.644Z,14.23
2023-02-20T06:35:56.633Z,14.57
2023-02-20T06:38:24.253Z,14.33
2023-02-20T06:40:51.031Z,14.60
2023-02-20T06:43:18.048Z,14.13
2023-02-20T06:45:44.934Z,11.87
2023-02-20T06:48:14.341Z,14.00
2023-02-20T06:50:42.035Z,14.40
2023-02-20T06:53:09.557Z,14.43
2023-02-20T06:55:36.287Z,14.07
2023-02-20T06:58:02.992Z,13.27
2023-02-20T07:00:29.974Z,12.90
2023-02-20T07:02:56.961Z,13.10
2023-02-20T07:05:23.858Z,13.30
2023-02-20T07:07:50.594Z,13.67
2023-02-20T07:10:17.396Z,14.40
2023-02-20T07:12:44.216Z,14.30
2023-02-20T07:15:12.448Z,11.77
2023-02-20T07:17:39.301Z,15.10
2023-02-20T07:20:06.996Z,15.23
2023-02-20T07:22:33.795Z,13.33
2023-02-20T07:25:00.512Z,13.40
2023-02-20T07:27:27.623Z,12.93
2023-02-20T07:29:54.331Z,12.03
2023-02-20T07:32:23.367Z,11.77
2023-02-20T07:35:03.035Z,12.90
2023-02-20T07:37:30.967Z,13.93
2023-02-20T07:39:57.740Z,14.23
2023-02-20T07:42:24.745Z,13.37
2023-02-20T07:44:51.707Z,11.80
2023-02-20T07:47:18.466Z,11.80
2023-02-20T07:49:45.202Z,11.97
2023-02-20T07:52:11.902Z,11.97
2023-02-20T07:54:38.702Z,10.87
2023-02-20T07:57:08.386Z,11.60
2023-02-20T07:59:35.621Z,11.90
2023-02-20T08:02:03.510Z,13.07
2023-02-20T08:04:30.455Z,11.90
2023-02-20T08:06:57.169Z,11.37
2023-02-20T08:09:24.016Z,10.87
2023-02-20T08:11:50.890Z,10.50
2023-02-20T08:14:17.884Z,11.13
2023-02-20T08:16:44.744Z,15.13
2023-02-20T08:19:11.716Z,13.07
2023-02-20T08:21:38.611Z,12.43
2023-02-20T08:24:06.554Z,10.60
2023-02-20T08:26:36.580Z,9.90
2023-02-20T08:29:03.352Z,10.53
2023-02-20T08:31:32.831Z,9.53
2023-02-20T08:34:00.471Z,9.00
2023-02-20T08:36:27.604Z,10.07
2023-02-20T08:38:55.025Z,7.87
2023-02-20T08:41:21.777Z,10.37
2023-02-20T08:43:48.627Z,9.43
2023-02-20T08:46:16.152Z,9.27
2023-02-20T08:48:43.398Z,9.87
2023-02-20T08:51:10.577Z,9.53
2023-02-20T08:53:39.609Z,10.87
2023-02-20T08:56:06.956Z,10.10
2023-02-20T08:58:33.731Z,9.27
2023-02-20T09:01:00.590Z,10.30
2023-02-20T09:03:27.303Z,9.50
2023-02-20T09:05:54.043Z,8.57
2023-02-20T09:08:20.841Z,9.27
2023-02-20T09:10:47.801Z,9.40
2023-02-20T09:13:14.851Z,9.00
2023-02-20T09:15:41.820Z,9.43
2023-02-20T09:18:11.744Z,9.13
2023-02-20T09:20:38.491Z,9.90
2023-02-20T09:23:05.678Z,9.53
2023-02-20T09:25:33.308Z,8.90
2023-02-20T09:28:00.035Z,8.77
2023-02-20T09:30:27.063Z,8.73
2023-02-20T09:32:54.804Z,8.90
2023-02-20T09:35:25.811Z,8.47
2023-02-20T09:37:52.739Z,8.23
2023-02-20T09:40:27.574Z,8.40
2023-02-20T09:43:15.410Z,7.27
2023-02-20T09:45:51.151Z,7.80
2023-02-20T09:48:31.633Z,11.33
2023-02-20T09:51:05.294Z,9.17
2023-02-20T09:54:05.864Z,8.13
2023-02-20T09:56:36.977Z,8.10
2023-02-20T09:59:09.842Z,8.30
2023-02-20T10:01:43.488Z,7.80
2023-02-20T10:04:20.217Z,7.20
2023-02-20T10:06:47.810Z,8.20
2023-02-20T10:09:16.103Z,7.43
2023-02-20T10:11:58.102Z,8.13
2023-02-20T10:14:27.738Z,7.67
2023-02-20T10:17:11.079Z,7.80
2023-02-20T10:20:00.407Z,8.33
2023-02-20T10:22:36.762Z,8.40
2023-02-20T10:25:38.598Z,6.93
2023-02-20T10:28:18.336Z,8.10
2023-02-20T10:30:51.191Z,6.97
2023-02-20T10:33:27.243Z,7.00
2023-02-20T10:36:02.473Z,6.97
2023-02-20T10:38:38.527Z,7.33
2023-02-20T10:41:13.930Z,7.70
2023-02-20T10:43:50.134Z,10.53
2023-02-20T10:46:36.949Z,7.80
2023-02-20T10:49:34.496Z,6.50
2023-02-20T10:52:04.693Z,6.53
2023-02-20T10:55:11.091Z,7.53
2023-02-20T11:00:19.164Z,6.80
2023-02-20T11:03:12.504Z,7.53
2023-02-20T11:05:46.889Z,8.30
2023-02-20T11:08:14.482Z,6.90
2023-02-20T11:10:41.219Z,7.30
2023-02-20T11:13:14.188Z,7.60
2023-02-20T11:15:44.207Z,6.77
2023-02-20T11:18:26.351Z,7.60
2023-02-20T11:20:56.538Z,8.80
2023-02-20T11:23:35.179Z,7.33
2023-02-20T11:26:16.074Z,7.60
2023-02-20T11:28:43.526Z,6.13
2023-02-20T11:31:10.578Z,6.57
2023-02-20T11:33:48.053Z,6.40
2023-02-20T11:36:23.824Z,6.87
2023-02-20T11:39:01.126Z,7.40
2023-02-20T11:41:45.947Z,7.00
2023-02-20T11:44:20.931Z,8.07
2023-02-20T11:46:48.463Z,6.80
2023-02-20T11:49:28.312Z,17.63
2023-02-20T11:52:16.958Z,6.60
2023-02-20T11:54:44.011Z,7.13
2023-02-20T11:57:25.450Z,6.70
2023-02-20T12:00:13.078Z,6.97
2023-02-20T12:03:03.741Z,8.37
2023-02-20T12:05:48.223Z,8.47
2023-02-20T12:08:54.066Z,7.50
2023-02-20T12:11:23.093Z,7.70
2023-02-20T12:13:52.977Z,7.87
2023-02-20T12:16:32.695Z,7.33
2023-02-20T12:19:04.249Z,10.73
2023-02-20T12:21:46.724Z,8.03
2023-02-20T12:24:44.390Z,7.30
2023-02-20T12:27:32.190Z,7.20
2023-02-20T12:30:08.052Z,7.63
2023-02-20T12:32:44.780Z,7.63
2023-02-20T12:35:25.166Z,7.67
2023-02-20T12:38:33.168Z,7.93
2023-02-20T12:41:33.786Z,7.43
2023-02-20T12:44:14.928Z,8.57
2023-02-20T12:47:08.691Z,7.80
2023-02-20T12:49:47.151Z,7.00
2023-02-20T12:52:26.011Z,7.63
2023-02-20T12:55:12.950Z,7.13
2023-02-20T13:00:38.724Z,7.70
2023-02-20T13:03:17.087Z,6.90
2023-02-20T13:05:47.351Z,6.70
2023-02-20T13:08:46.651Z,7.30
2023-02-20T13:11:20.931Z,10.50
2023-02-20T13:14:05.818Z,7.80
2023-02-20T13:16:39.724Z,7.83
2023-02-20T13:19:37.314Z,8.03
2023-02-20T13:22:06.343Z,6.83
2023-02-20T13:24:42.656Z,7.00
2023-02-20T13:27:25.655Z,8.90
2023-02-20T13:30:17.316Z,7.13
2023-02-20T13:32:45.734Z,7.00
2023-02-20T13:35:42.417Z,9.07
2023-02-20T13:38:10.370Z,7.60
2023-02-20T13:40:39.597Z,7.60
2023-02-20T13:43:15.496Z,7.23
2023-02-20T13:45:49.845Z,6.67
2023-02-20T13:48:29.308Z,7.60
2023-02-20T13:51:15.312Z,8.73
2023-02-20T13:54:05.597Z,7.97
2023-02-20T13:56:56.819Z,7.20
2023-02-20T13:59:24.017Z,8.17
2023-02-20T14:01:54.829Z,8.30
2023-02-20T14:04:22.889Z,7.83
2023-02-20T14:17:39.849Z,7.63
2023-02-20T14:20:20.800Z,7.60
2023-02-20T14:23:06.809Z,7.80
2023-02-20T14:25:33.936Z,7.90
2023-02-20T14:28:11.453Z,9.10
2023-02-20T14:30:38.800Z,8.80
2023-02-20T14:33:27.247Z,8.93
2023-02-20T14:36:21.392Z,13.87
2023-02-20T14:38:58.633Z,10.10
2023-02-20T14:41:26.407Z,8.30
2023-02-20T14:43:59.478Z,8.50
2023-02-20T14:46:32.924Z,10.57
2023-02-20T14:49:15.870Z,8.30
2023-02-20T14:51:43.578Z,8.67
2023-02-20T14:54:19.361Z,7.10
2023-02-20T14:56:48.441Z,8.90
2023-02-20T14:59:28.512Z,8.53
2023-02-20T15:02:04.650Z,8.37
2023-02-20T15:04:31.492Z,9.20
2023-02-20T15:07:04.651Z,9.13
2023-02-20T15:09:46.035Z,9.47
2023-02-20T15:12:29.343Z,8.77
2023-02-20T15:15:02.593Z,8.80
2023-02-20T15:17:38.321Z,8.70
2023-02-20T15:20:33.628Z,8.20
2023-02-20T15:23:25.241Z,9.47
2023-02-20T15:25:51.974Z,9.03
2023-02-20T15:28:18.635Z,8.63
2023-02-20T15:31:10.386Z,8.70
2023-02-20T15:33:43.201Z,9.00
2023-02-20T15:36:15.378Z,8.90
2023-02-20T15:38:42.227Z,8.17
2023-02-20T15:41:11.368Z,8.60
2023-02-20T15:43:47.090Z,7.60
2023-02-20T15:46:15.505Z,7.67
2023-02-20T15:48:43.017Z,9.83
2023-02-20T15:51:11.189Z,8.73
2023-02-20T15:53:38.624Z,7.90
2023-02-20T15:56:06.090Z,8.40
2023-02-20T15:58:37.365Z,9.40
2023-02-20T16:01:05.139Z,8.60
2023-02-20T16:03:41.717Z,9.23
2023-02-20T16:06:12.836Z,8.40
2023-02-20T16:08:39.775Z,7.97
2023-02-20T16:11:06.572Z,9.97
2023-02-20T16:13:39.901Z,8.00
2023-02-20T16:18:40.467Z,8.33
2023-02-20T16:39:54.548Z,9.80
2023-02-20T16:42:26.103Z,9.00
2023-02-20T16:44:58.670Z,9.27
2023-02-20T16:47:28.477Z,8.90
2023-02-20T16:49:55.424Z,9.70
2023-02-20T16:52:26.314Z,9.30
2023-02-20T16:54:54.869Z,9.90
2023-02-20T16:57:23.883Z,9.80
2023-02-20T16:59:59.448Z,10.50
2023-02-20T17:02:29.163Z,9.30
2023-02-20T17:04:56.756Z,9.63
2023-02-20T17:07:24.191Z,10.13
2023-02-20T17:09:51.455Z,8.97
2023-02-20T17:12:20.677Z,10.20
2023-02-20T17:14:48.030Z,10.30
2023-02-20T17:17:15.484Z,9.83
2023-02-20T17:19:43.570Z,11.20
2023-02-20T17:22:11.183Z,10.70
2023-02-20T17:24:41.373Z,10.33
2023-02-20T17:27:09.421Z,9.70
2023-02-20T17:29:36.211Z,9.83
2023-02-20T17:32:03.107Z,9.97
2023-02-20T17:34:29.940Z,10.40
2023-02-20T17:36:56.803Z,10.00
2023-02-20T17:39:24.674Z,10.00
2023-02-20T17:41:53.357Z,11.30
2023-02-20T17:44:23.192Z,11.30
2023-02-20T17:46:51.579Z,10.03
2023-02-20T17:49:19.452Z,10.77
2023-02-20T17:51:47.066Z,10.60
2023-02-20T17:54:14.689Z,10.90
2023-02-20T17:56:43.572Z,11.33
2023-02-20T17:59:10.825Z,10.47
2023-02-20T18:01:37.585Z,10.40
2023-02-20T18:04:05.951Z,12.90
2023-02-20T18:06:33.664Z,11.77
2023-02-20T18:09:00.885Z,11.73
2023-02-20T18:11:28.500Z,11.23
2023-02-20T18:13:56.718Z,10.80
2023-02-20T18:16:24.646Z,9.93
2023-02-20T18:18:51.563Z,10.07
2023-02-20T18:21:18.512Z,10.90
2023-02-20T18:23:45.662Z,10.07
2023-02-20T18:26:13.948Z,10.80
2023-02-20T18:28:40.934Z,11.30
2023-02-20T18:31:08.681Z,11.63
2023-02-20T18:33:35.645Z,10.67
2023-02-20T18:36:08.300Z,10.40
2023-02-20T18:38:36.329Z,10.43
2023-02-20T18:41:03.681Z,10.03
2023-02-20T18:43:31.397Z,10.90
2023-02-20T18:45:58.296Z,11.37
2023-02-20T18:48:25.034Z,10.73
2023-02-20T18:50:52.012Z,10.27
2023-02-20T18:53:18.836Z,13.67
2023-02-20T18:55:45.604Z,11.63
2023-02-20T18:58:12.311Z,10.33
2023-02-20T19:00:40.631Z,10.50
2023-02-20T19:03:07.808Z,10.37
2023-02-20T19:05:34.667Z,11.70
2023-02-20T19:08:03.954Z,10.90
2023-02-20T19:10:31.369Z,10.07
2023-02-20T19:12:59.048Z,10.97
2023-02-20T19:15:26.298Z,10.10
2023-02-20T19:17:54.713Z,10.57
2023-02-20T19:20:27.475Z,10.40
2023-02-20T19:22:55.479Z,9.60
2023-02-20T19:25:23.177Z,10.63
2023-02-20T19:27:50.105Z,9.73
2023-02-20T19:30:17.986Z,10.37
2023-02-20T19:32:44.892Z,10.40
2023-02-20T19:35:12.425Z,10.97
2023-02-20T19:40:12.287Z,10.40
2023-02-20T19:42:40.482Z,9.73
2023-02-20T19:45:07.593Z,10.10
2023-02-20T19:47:34.330Z,12.17
2023-02-20T19:50:01.014Z,11.20
2023-02-20T19:52:27.775Z,10.27
2023-02-20T19:54:54.522Z,11.37
2023-02-20T19:57:21.313Z,10.80
2023-02-20T19:59:48.096Z,11.43
2023-02-20T20:02:15.001Z,9.97
2023-02-20T20:04:44.517Z,10.07
2023-02-20T20:07:11.850Z,10.67
2023-02-20T20:09:38.645Z,9.63
2023-02-20T20:12:30.295Z,11.87
2023-02-20T20:14:57.062Z,11.00
2023-02-20T20:17:24.103Z,12.23
2023-02-20T20:20:00.458Z,11.90
2023-02-20T20:22:29.339Z,12.13
2023-02-20T20:24:56.217Z,12.27
2023-02-20T20:27:23.698Z,11.93
2023-02-20T20:29:51.526Z,11.70
2023-02-20T20:32:20.468Z,12.10
2023-02-20T20:34:52.117Z,13.17
2023-02-20T20:37:25.965Z,11.70
2023-02-20T20:39:54.188Z,12.67
2023-02-20T20:42:24.564Z,13.47
2023-02-20T20:44:58.703Z,13.13
2023-02-20T20:47:28.855Z,13.23
2023-02-20T20:49:56.492Z,12.67
2023-02-20T20:52:24.882Z,13.23
2023-02-20T20:54:53.349Z,13.10
2023-02-20T20:57:22.058Z,12.57
2023-02-20T20:59:49.288Z,13.33
2023-02-20T21:02:16.772Z,14.90
2023-02-20T21:04:45.273Z,14.10
2023-02-20T21:07:12.579Z,14.53
2023-02-20T21:09:39.381Z,14.13
2023-02-20T21:12:07.644Z,13.50
2023-02-20T21:14:37.816Z,15.10
2023-02-20T21:17:06.576Z,13.40
2023-02-20T21:19:33.308Z,13.17
2023-02-20T21:22:00.108Z,14.33
2023-02-20T21:24:26.828Z,14.03
2023-02-20T21:26:53.583Z,15.57
2023-02-20T21:29:23.466Z,13.00
2023-02-20T21:31:50.240Z,15.10
2023-02-20T21:34:17.158Z,15.30
2023-02-20T21:36:44.114Z,14.00
2023-02-20T21:39:10.972Z,14.40
2023-02-20T21:41:56.238Z,14.33
2023-02-20T21:44:26.861Z,16.03
2023-02-20T21:46:58.968Z,15.27
2023-02-20T21:49:27.268Z,15.67
2023-02-20T21:51:54.648Z,14.87
2023-02-20T21:54:24.805Z,14.23
2023-02-20T21:56:51.938Z,14.13
2023-02-20T21:59:18.981Z,13.40
2023-02-20T22:01:45.900Z,15.23
2023-02-20T22:04:14.332Z,16.40
2023-02-20T22:06:42.113Z,15.77
2023-02-20T22:09:27.372Z,14.33
2023-02-20T22:12:13.016Z,14.83
2023-02-20T22:14:58.501Z,14.40
2023-02-20T22:17:44.069Z,15.00
2023-02-20T22:20:32.113Z,15.40
2023-02-20T22:23:17.720Z,14.93
2023-02-20T22:26:03.024Z,16.30
2023-02-20T22:28:48.604Z,15.93
2023-02-20T22:31:34.350Z,14.20
2023-02-20T22:34:19.815Z,16.27
2023-02-20T22:37:07.724Z,16.17
2023-02-20T22:39:54.400Z,17.20
2023-02-20T22:42:43.266Z,17.23
2023-02-20T22:45:29.959Z,15.90
2023-02-20T22:48:15.568Z,16.30
2023-02-20T22:51:00.927Z,18.10
2023-02-20T22:53:46.231Z,17.70
2023-02-20T22:56:42.464Z,16.80
2023-02-20T22:59:28.035Z,16.63
2023-02-20T23:02:13.177Z,17.30
2023-02-20T23:04:58.398Z,19.23
2023-02-20T23:07:48.587Z,16.17
2023-02-20T23:10:35.055Z,15.50
2023-02-20T23:13:21.523Z,17.30
2023-02-20T23:16:07.048Z,17.07
2023-02-20T23:18:52.411Z,16.57
2023-02-20T23:21:37.966Z,17.47
2023-02-20T23:24:23.541Z,17.83
2023-02-20T23:27:12.242Z,16.30
2023-02-20T23:29:57.367Z,17.20
2023-02-20T23:32:43.031Z,17.50
2023-02-20T23:35:29.559Z,16.77
2023-02-20T23:38:15.163Z,17.00
2023-02-20T23:41:00.701Z,18.47
2023-02-20T23:43:49.335Z,19.50
2023-02-20T23:46:35.136Z,17.00
2023-02-20T23:49:20.512Z,17.27
2023-02-20T23:52:15.889Z,18.10
2023-02-20T23:55:01.752Z,18.73
2023-02-20T23:57:47.448Z,17.30
